This is the latest recevied weather packets stored in our database for station/object FW4141. If no packets are shown the sender has not sent any weather packets the latest 10 day(s).
| Time | Temp. | Humidity | Pressure | Rain* | Wind** | Luminosity | Snow |
|---|---|---|---|---|---|---|---|
| 1778299273 | 2.78° C | 93% | 1012.8 hPa | 0 mm | - | - | - |
| 1778297463 | 2.78° C | 93% | 1012.8 hPa | 0 mm | - | - | - |
| 1778292630 | 2.78° C | 92% | 1012.7 hPa | 0 mm | - | - | - |
| 1778292027 | 2.78° C | 92% | 1012.6 hPa | 0 mm | - | - | - |
| 1778290820 | 3.89° C | 92% | 1012.8 hPa | 0 mm | - | - | - |
| 1778288466 | 3.89° C | 92% | 1012.7 hPa | 0 mm | - | - | - |
| 1778254886 | 13.33° C | 61% | 1012.1 hPa | 0 mm | - | - | - |
| 1778247085 | 13.89° C | 59% | 1012.2 hPa | 0 mm | - | - | - |
| 1778245877 | 14.44° C | 58% | 1012.2 hPa | 0 mm | - | - | - |
| 1778241648 | 13.33° C | 61% | 1012.2 hPa | 0 mm | - | - | - |
| 1778240426 | 13.33° C | 61% | 1012.3 hPa | 0 mm | - | - | - |
| 1778236911 | 13.33° C | 61% | 1012.1 hPa | 0 mm | - | - | - |
| 1778232638 | 13.89° C | 59% | 1012.1 hPa | 0 mm | - | - | - |
| 1778232037 | 14.44° C | 58% | 1012 hPa | 0 mm | - | - | - |
| 1778231468 | 14.44° C | 58% | 1011.9 hPa | 0 mm | - | - | - |
| 1778230226 | 13.89° C | 60% | 1011.7 hPa | 0 mm | - | - | - |
| 1778227872 | 12.78° C | 67% | 1011.6 hPa | 0 mm | - | - | - |
| 1778220025 | 9.44° C | 78% | 1011.1 hPa | 0 mm | - | - | - |
| 1778217691 | 8.89° C | 84% | 1011 hPa | 0 mm | - | - | - |
| 1778214654 | 8.33° C | 87% | 1010.7 hPa | 0 mm | - | - | - |
| 1778212236 | 8.33° C | 86% | 1010.4 hPa | 0 mm | - | - | - |
| 1778206261 | 8.33° C | 89% | 1010.1 hPa | 0 mm | - | - | - |
| 1778205054 | 8.33° C | 89% | 1010 hPa | 0 mm | - | - | - |
| 1778204451 | 8.33° C | 89% | 1010 hPa | 0 mm | - | - | - |
| 1778203871 | 8.33° C | 89% | 1010 hPa | 0 mm | - | - | - |
* Rain latest hour (hover to see other rain measurements)
** Current wind speed in m/s (hover to see current wind gust speed)